Time;durP1;ratioP1;P1;durP2;ratioP2;P2;SDS_P1;SDS_P2;PMS_P1;PMS_P2;Temp;Humidity;BMP_temperature;BMP_pressure;BME280_temperature;BME280_humidity;BME280_pressure;Samples;Min_cycle;Max_cycle;Signal;HPM_P1;HPM_P2
2021/12/26 00:02:10;;;;;;;;;;;2.50;99.90;;;1.34;100.00;94655.81;10331101;28;1645;-69
2021/12/26 00:07:13;;;;;;;;;;;2.50;99.90;;;1.34;100.00;94653.94;10330908;28;1788;-68
2021/12/26 00:12:17;;;;;;;;;;;2.30;99.90;;;1.55;100.00;94651.59;10324028;28;1919;-68
2021/12/26 00:17:21;;;;;;;;;;;2.60;99.90;;;1.75;100.00;94645.75;10319608;28;2293;-69
2021/12/26 00:22:29;;;;;;;;;;;2.70;99.90;;;1.66;100.00;94642.72;10337136;22;1976;-79
2021/12/26 00:27:32;;;;;;;;;;;3.40;99.90;;;1.72;100.00;94639.09;10343634;28;1880;-80
2021/12/26 00:32:37;;;;;;;;;;;2.70;99.90;;;1.62;100.00;94641.59;10315284;28;1977;-81
2021/12/26 00:37:40;;;;;;;;;;;2.70;99.90;;;1.79;100.00;94647.66;10347411;28;1869;-80
2021/12/26 00:42:44;;;;;;;;;;;2.80;99.90;;;1.60;100.00;94644.50;10321179;28;1828;-80
2021/12/26 00:47:47;;;;;;;;;;;2.70;99.90;;;1.67;100.00;94644.34;10339746;28;1880;-80
2021/12/26 00:52:50;;;;;;;;;;;2.70;99.90;;;1.41;100.00;94651.13;10321665;28;1974;-79
2021/12/26 00:57:54;;;;;;;;;;;2.60;99.90;;;1.40;100.00;94648.72;10329153;28;1824;-81
2021/12/26 01:02:57;;;;;;;;;;;2.60;99.90;;;1.42;100.00;94660.69;10330917;28;1778;-81
2021/12/26 01:08:02;;;;;;;;;;;2.40;99.90;;;1.28;100.00;94652.28;10328020;28;2012;-81
2021/12/26 01:13:14;;;;;;;;;;;2.40;99.90;;;1.20;100.00;94646.56;10350272;28;1953;-80
2021/12/26 01:18:18;;;;;;;;;;;2.30;99.90;;;1.26;100.00;94642.97;10352353;28;2056;-80
2021/12/26 01:23:22;;;;;;;;;;;2.30;99.90;;;1.25;100.00;94658.03;10346296;28;1829;-79
2021/12/26 01:28:28;;;;;;;;;;;2.30;99.90;;;1.44;100.00;94666.53;10363576;28;1841;-78
2021/12/26 01:33:31;;;;;;;;;;;2.40;99.90;;;1.24;100.00;94671.53;10347399;28;2006;-80
2021/12/26 01:38:34;;;;;;;;;;;2.30;99.90;;;1.43;100.00;94664.94;10328892;28;2261;-82
2021/12/26 01:43:37;;;;;;;;;;;2.40;99.90;;;1.32;100.00;94673.75;10327125;28;1738;-81
2021/12/26 01:48:41;;;;;;;;;;;2.40;99.90;;;1.47;100.00;94668.69;10327416;28;1758;-82
2021/12/26 01:53:44;;;;;;;;;;;2.40;99.90;;;1.40;100.00;94660.13;10322809;28;1926;-80
2021/12/26 01:58:48;;;;;;;;;;;2.40;99.90;;;1.49;100.00;94669.25;10324214;28;2215;-80
2021/12/26 02:03:51;;;;;;;;;;;2.40;99.90;;;1.59;100.00;94664.09;10318321;28;1908;-80
2021/12/26 02:08:54;;;;;;;;;;;2.40;99.90;;;1.38;100.00;94661.41;10337810;28;1817;-80
2021/12/26 02:13:57;;;;;;;;;;;2.40;99.90;;;1.29;100.00;94655.72;10328733;28;1981;-81
2021/12/26 02:19:00;;;;;;;;;;;2.40;99.90;;;1.42;100.00;94652.72;10322414;28;2014;-80
2021/12/26 02:24:11;;;;;;;;;;;2.50;99.90;;;1.36;100.00;94653.69;10327191;28;1825;-80
2021/12/26 02:29:16;;;;;;;;;;;;;;;1.26;100.00;94650.91;10326380;28;2362;-80
2021/12/26 02:34:22;;;;;;;;;;;;;;;1.28;100.00;94646.19;10345628;28;1968;-81
2021/12/26 02:39:26;;;;;;;;;;;;;;;1.30;100.00;94638.78;10325792;28;1943;-81
2021/12/26 02:44:30;;;;;;;;;;;;;;;1.34;100.00;94637.28;10326842;28;1964;-80
2021/12/26 02:49:33;;;;;;;;;;;;;;;1.34;100.00;94637.28;10325059;28;2060;-80
2021/12/26 02:54:37;;;;;;;;;;;;;;;1.35;100.00;94636.22;10328578;28;2021;-80
2021/12/26 02:59:41;;;;;;;;;;;;;;;1.27;100.00;94641.91;10321308;28;1959;-81
2021/12/26 03:04:45;;;;;;;;;;;;;;;1.20;100.00;94647.38;10326334;28;2008;-80
2021/12/26 03:09:50;;;;;;;;;;;;;;;1.18;100.00;94651.31;10333711;28;1854;-78
2021/12/26 03:14:54;;;;;;;;;;;;;;;1.18;100.00;94652.13;10348913;28;1989;-80
2021/12/26 03:19:59;;;;;;;;;;;;;;;1.06;100.00;94644.25;10333207;28;2458;-81
2021/12/26 03:25:07;;;;;;;;;;;;;;;1.10;100.00;94655.19;10334305;28;2033;-81
2021/12/26 03:30:13;;;;;;;;;;;;;;;1.18;100.00;94651.31;10324788;28;1898;-80
2021/12/26 03:35:17;;;;;;;;;;;;;;;1.19;100.00;94658.22;10344670;28;2467;-80
2021/12/26 03:40:21;;;;;;;;;;;;;;;1.18;100.00;94661.91;10332327;28;2092;-81
2021/12/26 03:45:24;;;;;;;;;;;;;;;1.38;100.00;94662.19;10328400;28;1953;-80
2021/12/26 03:50:30;;;;;;;;;;;;;;;1.27;100.00;94663.09;10326460;28;1986;-81
2021/12/26 03:55:34;;;;;;;;;;;;;;;1.42;100.00;94660.69;10328041;28;1978;-79
2021/12/26 04:00:38;;;;;;;;;;;;;;;1.20;100.00;94654.50;10327500;28;2148;-80
2021/12/26 04:05:42;;;;;;;;;;;;;;;1.30;100.00;94654.69;10333643;28;2052;-80
2021/12/26 04:10:46;;;;;;;;;;;;;;;1.07;100.00;94659.09;10331128;28;1976;-80
2021/12/26 04:15:51;;;;;;;;;;;;;;;1.11;100.00;94658.63;10335446;28;2024;-80
2021/12/26 04:20:55;;;;;;;;;;;;;;;0.97;100.00;94658.94;10326570;28;2027;-80
2021/12/26 04:25:59;;;;;;;;;;;;;;;0.93;100.00;94668.41;10330060;28;1962;-80
2021/12/26 04:31:03;;;;;;;;;;;;;;;1.08;100.00;94667.84;10330659;28;2039;-80
2021/12/26 04:36:06;;;;;;;;;;;;;;;1.25;100.00;94673.13;10364277;28;1913;-81
2021/12/26 04:41:11;;;;;;;;;;;;;;;1.31;100.00;94674.81;10358510;28;1852;-81
2021/12/26 04:46:15;;;;;;;;;;;;;;;1.31;100.00;94667.66;10353370;28;2008;-79
2021/12/26 04:51:19;;;;;;;;;;;;;;;1.30;100.00;94670.56;10331625;28;1980;-80
2021/12/26 04:56:23;;;;;;;;;;;;;;;1.14;100.00;94672.16;10331480;28;1911;-80
2021/12/26 05:01:27;;;;;;;;;;;;;;;1.03;100.00;94684.44;10344536;28;1938;-80
2021/12/26 05:06:31;;;;;;;;;;;;;;;0.93;100.00;94676.34;10335721;28;1988;-79
2021/12/26 05:11:36;;;;;;;;;;;;;;;0.84;100.00;94677.78;10333560;28;2011;-79
2021/12/26 05:16:40;;;;;;;;;;;;;;;0.96;100.00;94686.47;10332519;28;1929;-78
2021/12/26 05:21:44;;;;;;;;;;;;;;;0.92;100.00;94679.22;10326196;28;1486;-80
2021/12/26 05:26:48;;;;;;;;;;;;;;;1.05;100.00;94673.63;10323709;28;2138;-79
2021/12/26 05:31:52;;;;;;;;;;;;;;;0.94;100.00;94677.94;10321706;28;1910;-79
2021/12/26 05:36:56;;;;;;;;;;;;;;;1.11;100.00;94670.00;10338542;28;1888;-79
2021/12/26 05:42:00;;;;;;;;;;;;;;;1.27;100.00;94676.31;10338318;28;1874;-79
2021/12/26 05:47:04;;;;;;;;;;;;;;;1.39;100.00;94674.38;10330107;28;2116;-80
2021/12/26 05:52:08;;;;;;;;;;;;;;;1.33;100.00;94680.66;10334330;28;1973;-80
2021/12/26 05:57:12;;;;;;;;;;;;;;;1.27;100.00;94681.63;10315672;23;2281;-79
2021/12/26 06:02:15;;;;;;;;;;;;;;;1.10;100.00;94678.19;10262440;28;1942;-79
2021/12/26 06:07:19;;;;;;;;;;;;;;;1.08;100.00;94679.25;10252342;28;1952;-79
2021/12/26 06:12:23;;;;;;;;;;;;;;;1.12;100.00;94684.03;10257099;28;2121;-79
2021/12/26 06:17:26;;;;;;;;;;;;;;;1.07;100.00;94690.84;10282679;28;2182;-79
2021/12/26 06:27:34;;;;;;;;;;;;;;;1.08;100.00;94699.59;10279677;28;1832;-70
2021/12/26 06:32:38;;;;;;;;;;;;;;;1.13;100.00;94696.22;10275325;28;1991;-70
2021/12/26 06:37:42;;;;;;;;;;;;;;;1.17;100.00;94686.78;10283940;28;2106;-71
2021/12/26 06:42:46;;;;;;;;;;;;;;;1.32;100.00;94694.94;10284648;28;1965;-71
2021/12/26 06:47:52;;;;;;;;;;;;;;;1.38;100.00;94693.97;10276460;28;2036;-70
2021/12/26 06:52:55;;;;;;;;;;;;;;;1.37;100.00;94697.66;10284155;28;2029;-69
2021/12/26 06:57:59;;;;;;;;;;;;;;;1.42;100.00;94700.41;10279257;28;1938;-71
2021/12/26 07:03:02;;;;;;;;;;;;;;;1.30;100.00;94702.34;10283625;28;1981;-71
2021/12/26 07:08:06;;;;;;;;;;;;;;;1.29;100.00;94709.47;10282568;28;1790;-70
2021/12/26 07:13:10;;;;;;;;;;;;;;;1.34;100.00;94716.69;10283253;28;1977;-70
2021/12/26 07:18:14;;;;;;;;;;;;;;;1.44;100.00;94716.84;10283298;28;2041;-71
2021/12/26 07:23:17;;;;;;;;;;;;;;;1.43;100.00;94719.72;10282217;28;1969;-70
2021/12/26 07:28:21;;;;;;;;;;;;;;;1.49;100.00;94730.16;10283518;28;1780;-70
2021/12/26 07:33:25;;;;;;;;;;;;;;;1.36;100.00;94735.78;10277822;28;2254;-69
2021/12/26 07:38:29;;;;;;;;;;;;;;;1.33;100.00;94738.91;10281745;28;1782;-71
2021/12/26 07:43:52;;;;;;;;;;;;;;;1.26;100.00;94735.63;10280451;28;1878;-70
2021/12/26 07:48:56;;;;;;;;;;;;;;;1.39;100.00;94742.44;10280672;28;1755;-71
2021/12/26 07:54:01;;;;;;;;;;;;;;;1.52;100.00;94742.91;10283333;28;1989;-71
2021/12/26 07:59:05;;;;;;;;;;;;;;;1.29;100.00;94746.53;10278406;28;1834;-71
2021/12/26 08:04:13;;;;;;;;;;;;;;;1.41;100.00;94746.47;10285423;28;1909;-71
2021/12/26 08:09:17;;;;;;;;;;;;;;;1.51;100.00;94746.59;10286739;28;1793;-70
2021/12/26 08:14:22;;;;;;;;;;;;;;;1.69;100.00;94753.50;10287217;28;1972;-70
2021/12/26 08:19:25;;;;;;;;;;;;;;;1.80;100.00;94755.25;10276973;28;1861;-70
2021/12/26 08:24:29;;;;;;;;;;;;;;;1.93;100.00;94751.47;10282100;28;2197;-69
2021/12/26 08:29:33;;;;;;;;;;;;;;;1.95;100.00;94757.31;10277856;28;1853;-70
2021/12/26 08:34:36;;;;;;;;;;;;;;;2.16;100.00;94758.38;10284787;28;3512;-71
2021/12/26 08:39:40;;;;;;;;;;;;;;;2.25;100.00;94764.06;10285448;28;1731;-70
2021/12/26 08:44:44;;;;;;;;;;;;;;;2.32;100.00;94759.38;10281685;28;1938;-71
2021/12/26 08:49:48;;;;;;;;;;;;;;;2.35;100.00;94756.22;10294876;28;1841;-72
2021/12/26 08:54:51;;;;;;;;;;;;;;;2.39;100.00;94762.66;10280053;28;1918;-70
2021/12/26 08:59:55;;;;;;;;;;;;;;;2.53;100.00;94763.06;10298859;28;1779;-70
2021/12/26 09:04:59;;;;;;;;;;;;;;;2.61;100.00;94770.63;10320298;28;1655;-72
2021/12/26 09:10:03;;;;;;;;;;;;;;;2.44;100.00;94763.50;10314075;28;1818;-73
2021/12/26 09:15:07;;;;;;;;;;;;;;;2.38;100.00;94769.81;10318072;28;1918;-72
2021/12/26 09:20:11;;;;;;;;;;;;;;;2.49;100.00;94784.00;10315565;28;2317;-70
2021/12/26 09:25:15;;;;;;;;;;;;;;;2.71;100.00;94781.31;10312035;28;1893;-70
2021/12/26 09:30:18;;;;;;;;;;;;;;;2.64;100.00;94778.84;10304283;28;1723;-70
2021/12/26 09:35:22;;;;;;;;;;;;;;;2.58;100.00;94773.75;10312766;28;1895;-70
2021/12/26 09:40:26;;;;;;;;;;;;;;;2.43;100.00;94772.53;10301313;28;1842;-69
2021/12/26 09:45:30;;;;;;;;;;;;;;;2.56;100.00;94774.00;10295867;28;2230;-70
2021/12/26 09:50:34;;;;;;;;;;;;;;;2.83;100.00;94775.88;10298076;28;1770;-70
2021/12/26 09:55:37;;;;;;;;;;;;;;;2.73;100.00;94768.59;10283332;28;1922;-70
2021/12/26 10:00:41;;;;;;;;;;;;;;;2.61;100.00;94766.09;10278247;28;1842;-70
2021/12/26 10:05:45;;;;;;;;;;;;;;;2.69;100.00;94762.22;10281163;28;1875;-70
2021/12/26 10:10:48;;;;;;;;;;;;;;;2.65;100.00;94753.94;10276188;28;1906;-70
2021/12/26 10:15:52;;;;;;;;;;;;;;;2.87;100.00;94750.47;10280429;28;1922;-70
2021/12/26 10:20:56;;;;;;;;;;;;;;;3.17;100.00;94753.38;10275970;28;1846;-69
2021/12/26 10:26:00;;;;;;;;;;;;;;;2.87;100.00;94747.81;10280689;28;1815;-70
2021/12/26 10:31:04;;;;;;;;;;;;;;;2.88;100.00;94749.41;10288820;28;1831;-70
2021/12/26 10:36:08;;;;;;;;;;;;;;;2.72;100.00;94751.88;10286397;28;1989;-70
2021/12/26 10:41:12;;;;;;;;;;;;;;;3.02;100.00;94745.28;10282072;28;1841;-70
2021/12/26 10:46:16;;;;;;;;;;;;;;;3.07;100.00;94748.00;10289418;28;1865;-70
2021/12/26 10:51:19;;;;;;;;;;;;;;;3.07;100.00;94741.88;10282633;28;1932;-70
2021/12/26 10:56:23;;;;;;;;;;;;;;;3.16;100.00;94743.81;10289190;28;1915;-70
2021/12/26 11:01:26;;;;;;;;;;;;;;;3.03;100.00;94749.53;10283428;28;1821;-70
2021/12/26 11:06:30;;;;;;;;;;;;;;;3.08;100.00;94740.81;10283052;28;1861;-70
2021/12/26 11:11:34;;;;;;;;;;;;;;;3.11;100.00;94742.97;10284503;28;1799;-71
2021/12/26 11:16:38;;;;;;;;;;;;;;;3.18;100.00;94735.59;10282161;28;1921;-70
2021/12/26 11:21:42;;;;;;;;;;;;;;;3.04;100.00;94732.56;10285688;28;1396;-70
2021/12/26 11:26:46;;;;;;;;;;;;;;;3.15;100.00;94728.94;10283278;28;1850;-69
2021/12/26 11:31:53;;;;;;;;;;;;;;;3.19;100.00;94730.06;10281963;28;2203;-71
2021/12/26 11:36:56;;;;;;;;;;;;;;;3.31;100.00;94734.38;10283394;28;1950;-72
2021/12/26 11:42:00;;;;;;;;;;;;;;;3.23;100.00;94727.69;10295285;28;1771;-71
2021/12/26 11:47:05;;;;;;;;;;;;;;;3.11;100.00;94738.47;10288193;28;1882;-71
2021/12/26 11:52:08;;;;;;;;;;;;;;;3.22;100.00;94729.53;10282417;28;1853;-71
2021/12/26 11:57:12;;;;;;;;;;;;;;;3.32;100.00;94720.06;10281778;28;1926;-71
2021/12/26 12:02:16;;;;;;;;;;;;;;;3.07;100.00;94718.78;10279214;28;1804;-70
2021/12/26 12:07:20;;;;;;;;;;;;;;;3.17;100.00;94726.81;10291821;28;1873;-72
2021/12/26 12:12:23;;;;;;;;;;;;;;;3.04;100.00;94723.78;10322067;28;1920;-70
2021/12/26 12:17:28;;;;;;;;;;;;;;;3.22;100.00;94724.22;10314295;28;1985;-70
2021/12/26 12:22:32;;;;;;;;;;;;;;;3.34;100.00;94723.25;10314365;28;1928;-70
2021/12/26 12:27:36;;;;;;;;;;;;;;;3.38;100.00;94721.69;10318669;23;2107;-73
2021/12/26 12:32:40;;;;;;;;;;;;;;;3.35;100.00;94722.19;10327641;28;1969;-74
2021/12/26 12:37:45;;;;;;;;;;;;;;;3.33;100.00;94719.00;10325569;28;1959;-75
2021/12/26 12:42:48;;;;;;;;;;;;;;;3.36;100.00;94715.81;10322808;28;1852;-75
2021/12/26 12:47:52;;;;;;;;;;;;;;;3.35;100.00;94720.34;10312314;28;1834;-75
2021/12/26 12:52:59;;;;;;;;;;;;;;;3.57;100.00;94714.94;10323931;28;1910;-76
2021/12/26 12:58:03;;;;;;;;;;;;;;;3.65;100.00;94718.97;10323429;28;1785;-74
2021/12/26 13:03:07;;;;;;;;;;;;;;;3.58;100.00;94711.22;10332067;28;1807;-74
2021/12/26 13:08:11;;;;;;;;;;;;;;;3.34;100.00;94712.63;10316882;28;1896;-75
2021/12/26 13:13:15;;;;;;;;;;;;;;;3.29;100.00;94715.25;10323708;28;1894;-74
2021/12/26 13:18:19;;;;;;;;;;;;;;;3.33;100.00;94711.84;10319006;28;1832;-75
2021/12/26 13:23:22;;;;;;;;;;;;;;;3.25;100.00;94713.09;10326830;28;1828;-74
2021/12/26 13:28:26;;;;;;;;;;;;;;;3.03;100.00;94715.03;10331910;28;1848;-75
2021/12/26 13:33:35;;;;;;;;;;;;;;;2.94;100.00;94719.19;10331933;28;1894;-73
2021/12/26 13:38:39;;;;;;;;;;;;;;;2.91;100.00;94717.03;10313404;28;1827;-73
2021/12/26 13:43:43;;;;;;;;;;;;;;;2.87;100.00;94715.94;10332166;28;1876;-73
2021/12/26 13:48:47;;;;;;;;;;;;;;;2.94;100.00;94720.00;10327686;28;1936;-74
2021/12/26 13:53:51;;;;;;;;;;;;;;;2.84;100.00;94719.09;10315564;28;1906;-74
2021/12/26 13:58:56;;;;;;;;;;;;;;;2.70;100.00;94726.66;10316609;28;1883;-76
2021/12/26 14:03:59;;;;;;;;;;;;;;;2.63;100.00;94721.53;10332195;28;1852;-74
2021/12/26 14:09:03;;;;;;;;;;;;;;;2.77;100.00;94721.16;10331002;28;1828;-74
2021/12/26 14:14:08;;;;;;;;;;;;;;;3.01;100.00;94725.09;10333241;28;1907;-75
2021/12/26 14:19:11;;;;;;;;;;;;;;;2.75;100.00;94718.75;10330021;28;1867;-76
2021/12/26 14:24:15;;;;;;;;;;;;;;;2.84;100.00;94727.06;10330920;28;1793;-74
2021/12/26 14:29:20;;;;;;;;;;;;;;;2.84;100.00;94721.75;10321900;28;1792;-74
2021/12/26 14:34:25;;;;;;;;;;;;;;;2.79;100.00;94727.00;10338770;28;1914;-75
2021/12/26 14:39:29;;;;;;;;;;;;;;;2.76;100.00;94730.16;10326089;28;1876;-73
2021/12/26 14:44:33;;;;;;;;;;;;;;;2.81;100.00;94738.19;10325215;28;1884;-74
2021/12/26 14:49:36;;;;;;;;;;;;;;;2.76;100.00;94735.47;10329294;28;2047;-74
2021/12/26 14:54:40;;;;;;;;;;;;;;;2.78;100.00;94730.72;10324531;28;1906;-74
2021/12/26 14:59:43;;;;;;;;;;;;;;;2.64;100.00;94741.72;10335260;28;1830;-74
2021/12/26 15:04:47;;;;;;;;;;;;;;;2.72;100.00;94741.25;10347662;28;1832;-74
2021/12/26 15:09:51;;;;;;;;;;;;;;;2.73;100.00;94747.38;10325253;28;1816;-75
2021/12/26 15:14:54;;;;;;;;;;;;;;;2.67;100.00;94743.06;10330241;28;1973;-74
2021/12/26 15:19:57;;;;;;;;;;;;;;;2.69;100.00;94744.44;10328501;28;1907;-75
2021/12/26 15:25:01;;;;;;;;;;;;;;;2.75;100.00;94749.78;10325418;28;1837;-74
2021/12/26 15:30:04;;;;;;;;;;;;;;;2.63;100.00;94747.28;10324671;28;1861;-74
2021/12/26 15:35:08;;;;;;;;;;;;;;;2.65;100.00;94745.97;10333510;28;1910;-74
2021/12/26 15:40:11;;;;;;;;;;;;;;;2.75;100.00;94750.59;10318872;28;1864;-75
2021/12/26 15:45:14;;;;;;;;;;;;;;;2.79;100.00;94741.06;10326675;28;2011;-74
2021/12/26 15:50:19;;;;;;;;;;;;;;;2.79;100.00;94743.72;10332014;28;1847;-75
2021/12/26 15:55:22;;;;;;;;;;;;;;;2.84;100.00;94749.09;10329843;28;1919;-76
2021/12/26 16:00:26;;;;;;;;;;;;;;;2.92;100.00;94747.81;10330946;28;1852;-74
2021/12/26 16:05:29;;;;;;;;;;;;;;;2.92;100.00;94739.88;10327968;28;1840;-76
2021/12/26 16:10:33;;;;;;;;;;;;;;;2.97;100.00;94743.38;10316855;28;1785;-73
2021/12/26 16:15:36;;;;;;;;;;;;;;;2.97;100.00;94742.56;10315561;28;1971;-74
2021/12/26 16:20:39;;;;;;;;;;;;;;;3.12;100.00;94740.09;10321747;28;1981;-73
2021/12/26 16:25:43;;;;;;;;;;;;;;;3.17;100.00;94747.28;10320189;28;1948;-74
2021/12/26 16:30:47;;;;;;;;;;;;;;;3.11;100.00;94743.75;10314286;28;1970;-76
2021/12/26 16:35:51;;;;;;;;;;;;;;;3.19;100.00;94745.97;10317173;28;1999;-74
2021/12/26 16:40:55;;;;;;;;;;;;;;;3.21;100.00;94748.38;10325608;28;1827;-75
2021/12/26 16:45:58;;;;;;;;;;;;;;;3.24;100.00;94746.03;10314014;28;1861;-75
2021/12/26 16:51:02;;;;;;;;;;;;;;;3.29;100.00;94747.91;10315055;28;1841;-74
2021/12/26 16:56:05;;;;;;;;;;;;;;;3.35;100.00;94743.44;10323069;28;1969;-75
2021/12/26 17:01:11;;;;;;;;;;;;;;;3.27;100.00;94746.56;10329990;28;1769;-75
2021/12/26 17:06:16;;;;;;;;;;;;;;;3.25;100.00;94747.63;10319805;28;1879;-76
2021/12/26 17:11:19;;;;;;;;;;;;;;;3.34;100.00;94749.81;10323436;28;1872;-75
2021/12/26 17:16:23;;;;;;;;;;;;;;;3.39;100.00;94740.03;10321085;28;1997;-75
2021/12/26 17:21:27;;;;;;;;;;;;;;;3.39;100.00;94745.34;10323190;28;2129;-75
2021/12/26 17:26:33;;;;;;;;;;;;;;;3.47;100.00;94750.19;10266613;28;1660072;-75
2021/12/26 17:31:37;;;;;;;;;;;;;;;3.45;100.00;94749.66;10328236;28;1865;-76
2021/12/26 17:36:41;;;;;;;;;;;;;;;3.42;100.00;94742.16;10323794;28;1985;-74
2021/12/26 17:41:45;;;;;;;;;;;;;;;3.28;100.00;94753.47;10335120;28;2319;-75
2021/12/26 17:46:49;;;;;;;;;;;;;;;3.39;100.00;94747.22;10323576;28;1895;-76
2021/12/26 17:51:53;;;;;;;;;;;;;;;3.33;100.00;94750.88;10339800;28;1820;-75
2021/12/26 17:56:56;;;;;;;;;;;;;;;3.29;100.00;94755.09;10336987;28;2319;-75
2021/12/26 18:02:00;;;;;;;;;;;;;;;3.18;100.00;94749.69;10333900;28;2006;-76
2021/12/26 18:07:04;;;;;;;;;;;;;;;3.15;100.00;94755.50;10330832;28;1835;-75
2021/12/26 18:12:08;;;;;;;;;;;;;;;3.13;100.00;94748.84;10345963;28;1805;-75
2021/12/26 18:17:11;;;;;;;;;;;;;;;3.09;100.00;94755.69;10321417;28;1948;-77
2021/12/26 18:22:16;;;;;;;;;;;;;;;2.98;100.00;94744.19;10336568;28;2166;-75
2021/12/26 18:27:19;;;;;;;;;;;;;;;2.97;100.00;94731.97;10346049;22;3446;-70
2021/12/26 18:32:22;;;;;;;;;;;;;;;2.92;100.00;94724.75;10400186;28;1958;-71
2021/12/26 18:37:26;;;;;;;;;;;;;;;2.90;100.00;94718.09;10410918;28;2046;-71
2021/12/26 18:42:30;;;;;;;;;;;;;;;3.00;100.00;94720.06;10419130;28;1862;-71
2021/12/26 18:47:33;;;;;;;;;;;;;;;2.93;100.00;94712.28;10368040;28;2251;-70
2021/12/26 18:52:36;;;;;;;;;;;;;;;2.94;100.00;94724.50;10370902;28;1787;-71
2021/12/26 18:57:40;;;;;;;;;;;;;;;2.98;100.00;94712.31;10369859;28;2259;-70
2021/12/26 19:02:47;;;;;;;;;;;;;;;3.01;100.00;94711.81;10365983;28;2197;-70
2021/12/26 19:07:51;;;;;;;;;;;;;;;3.03;100.00;94720.34;10368829;28;1831;-71
2021/12/26 19:12:54;;;;;;;;;;;;;;;3.13;100.00;94725.75;10364938;28;1763;-71
2021/12/26 19:17:58;;;;;;;;;;;;;;;3.15;100.00;94726.28;10363352;28;1914;-72
2021/12/26 19:23:02;;;;;;;;;;;;;;;3.24;100.00;94730.09;10367221;28;1819;-72
2021/12/26 19:28:06;;;;;;;;;;;;;;;3.33;100.00;94735.75;10373986;28;1728;-70
2021/12/26 19:33:10;;;;;;;;;;;;;;;3.37;100.00;94730.69;10397626;28;1775;-72
2021/12/26 19:38:16;;;;;;;;;;;;;;;3.40;100.00;94730.22;10402520;28;1922;-70
2021/12/26 19:43:19;;;;;;;;;;;;;;;3.40;100.00;94736.31;10408080;28;1804;-72
2021/12/26 19:48:23;;;;;;;;;;;;;;;3.29;100.00;94729.31;10402821;28;1854;-72
2021/12/26 19:53:27;;;;;;;;;;;;;;;3.35;100.00;94730.16;10403746;28;1844;-71
2021/12/26 19:58:31;;;;;;;;;;;;;;;3.39;100.00;94733.94;10398600;28;1887;-72
2021/12/26 20:03:35;;;;;;;;;;;;;;;3.41;100.00;94727.28;10397401;28;1858;-71
2021/12/26 20:08:38;;;;;;;;;;;;;;;3.41;100.00;94723.84;10391238;28;1866;-71
2021/12/26 20:13:43;;;;;;;;;;;;;;;3.40;100.00;94727.56;10384931;28;2028;-72
2021/12/26 20:18:48;;;;;;;;;;;;;;;3.35;100.00;94730.16;10366949;28;1942;-71
2021/12/26 20:23:54;;;;;;;;;;;;;;;3.37;100.00;94722.72;10367668;28;1874;-72
2021/12/26 20:28:58;;;;;;;;;;;;;;;3.37;100.00;94714.75;10387703;28;1870;-71
2021/12/26 20:34:01;;;;;;;;;;;;;;;3.32;100.00;94709.44;10376630;28;1902;-71
2021/12/26 20:39:05;;;;;;;;;;;;;;;3.27;100.00;94720.81;10369390;28;2195;-70
2021/12/26 20:44:09;;;;;;;;;;;;;;;3.31;100.00;94716.59;10375736;28;1837;-72
2021/12/26 20:49:14;;;;;;;;;;;;;;;3.43;100.00;94724.38;10368380;28;1898;-70
2021/12/26 20:54:20;;;;;;;;;;;;;;;3.44;100.00;94715.38;10365281;28;1799;-71
2021/12/26 20:59:24;;;;;;;;;;;;;;;3.37;100.00;94714.75;10362307;28;1918;-71
2021/12/26 21:04:28;;;;;;;;;;;;;;;3.51;100.00;94721.28;10362173;28;1899;-70
2021/12/26 21:09:33;;;;;;;;;;;;;;;3.57;100.00;94720.25;10359726;28;1807;-70
2021/12/26 21:14:37;;;;;;;;;;;;;;;3.67;100.00;94715.00;10377042;28;2199;-70
2021/12/26 21:19:40;;;;;;;;;;;;;;;3.59;100.00;94720.78;10360231;28;1978;-70
2021/12/26 21:24:44;;;;;;;;;;;;;;;3.59;100.00;94720.78;10360080;28;1807;-72
2021/12/26 21:29:48;;;;;;;;;;;;;;;3.58;100.00;94700.59;10357359;28;1848;-71
2021/12/26 21:34:51;;;;;;;;;;;;;;;3.43;100.00;94698.59;10356168;28;1930;-71
2021/12/26 21:39:58;;;;;;;;;;;;;;;3.54;100.00;94712.78;10359242;28;1866;-71
2021/12/26 21:45:04;;;;;;;;;;;;;;;3.58;100.00;94705.09;10360333;28;1859;-71
2021/12/26 21:50:12;;;;;;;;;;;;;;;3.62;100.00;94709.63;10369621;28;2124;-70
2021/12/26 21:55:16;;;;;;;;;;;;;;;3.62;100.00;94706.97;10356487;28;2113;-71
2021/12/26 22:00:19;;;;;;;;;;;;;;;3.69;100.00;94704.09;10356568;28;1807;-72
2021/12/26 22:05:23;;;;;;;;;;;;;;;3.78;100.00;94708.69;10376627;28;1897;-71
2021/12/26 22:10:29;;;;;;;;;;;;;;;3.81;100.00;94704.69;10372625;28;2091;-71
2021/12/26 22:15:32;;;;;;;;;;;;;;;3.73;100.00;94695.34;10360203;28;1973;-72
2021/12/26 22:20:36;;;;;;;;;;;;;;;3.77;100.00;94693.81;10363332;28;1779;-70
2021/12/26 22:25:42;;;;;;;;;;;;;;;3.73;100.00;94689.25;10395822;28;1834;-72
2021/12/26 22:30:46;;;;;;;;;;;;;;;3.71;100.00;94678.88;10378337;28;1904;-71
2021/12/26 22:35:49;;;;;;;;;;;;;;;3.70;100.00;94681.81;10402449;28;1955;-71
2021/12/26 22:40:53;;;;;;;;;;;;;;;3.70;100.00;94674.63;10385691;28;1862;-71
2021/12/26 22:45:57;;;;;;;;;;;;;;;3.71;100.00;94676.22;10378486;28;1921;-71
2021/12/26 22:51:00;;;;;;;;;;;;;;;3.73;100.00;94670.63;10374966;28;1963;-71
2021/12/26 22:56:04;;;;;;;;;;;;;;;3.73;100.00;94670.63;10365671;28;1953;-71
2021/12/26 23:01:07;;;;;;;;;;;;;;;3.81;100.00;94659.50;10371497;28;2103;-71
2021/12/26 23:06:12;;;;;;;;;;;;;;;3.81;100.00;94654.19;10366058;28;1894;-70
2021/12/26 23:11:15;;;;;;;;;;;;;;;3.90;100.00;94652.66;10384789;28;2155;-71
2021/12/26 23:16:19;;;;;;;;;;;;;;;3.98;100.00;94649.50;10358730;28;2165;-71
2021/12/26 23:21:22;;;;;;;;;;;;;;;3.87;100.00;94639.88;10365326;28;1819;-70
2021/12/26 23:26:26;;;;;;;;;;;;;;;3.91;100.00;94643.63;10379658;28;1835;-71
2021/12/26 23:31:29;;;;;;;;;;;;;;;3.90;100.00;94647.34;10361181;28;1779;-71
2021/12/26 23:36:37;;;;;;;;;;;;;;;3.95;100.00;94643.91;10364725;28;1986;-71
2021/12/26 23:41:42;;;;;;;;;;;;;;;4.00;100.00;94647.38;10361059;28;1890;-70
2021/12/26 23:46:47;;;;;;;;;;;;;;;3.96;100.00;94642.84;10362080;28;2195;-71
2021/12/26 23:51:50;;;;;;;;;;;;;;;3.96;100.00;94634.88;10364560;28;1822;-71
2021/12/26 23:56:53;;;;;;;;;;;;;;;4.01;100.00;94642.88;10360877;28;1987;-71
